Aviation Digital Data Service (ADDS)

Output produced by METARs form (1858 UTC 24 April 2017)
found at http://aviationweather.gov/adds/metars/
 
KDEN 241725Z 2418/2524 06011KT P6SM FEW080 BKN220 
     FM241900 08010KT P6SM FEW080 SCT150 BKN200 
     FM242100 10011KT P6SM VCSH SCT080 BKN150 BKN200 
     FM250000 06009KT P6SM FEW060 SCT080 BKN140 
     FM250400 36011KT P6SM FEW060 BKN080 BKN140 
     TEMPO 2504/2508 -SHRA BKN060 
     FM251100 25006KT P6SM FEW010 SCT080 BKN220 
     FM251600 33010KT P6SM SCT070 BKN140 
     FM252100 03011KT P6SM -SHRA BKN060